Eastlake, CO (80614)

11:42 PM MDT on May 22, 2017 (GMT -0600)
DRSX3 | | Change Station

Elev 5315 ft 39.91 °N, 104.96 °W | Updated 18 seconds ago

Mostly Cloudy
Mostly Cloudy
41.5 °F
Feels Like 42 °F
N
0.0
Wind Variable Wind from NNE

Today
High -- | Low -- °F
--% Chance of Precip.
Yesterday
High -- | Low -- °F
Precip. -- in
Pressure 30.26 in
Visibility 10.0 miles
Clouds Scattered Clouds 8500 ft
Windchill 42 °F
Dew Point 41 °F
Humidity 98%
Rainfall 0.00 in
Snow Depth Not available.
5:38 AM 8:14 PM
Waning Crescent, 10% visible
METAR KEIK 230535Z AUTO 00000KT 10SM SCT085 06/05 A3026 RMK AO2 T00600049
Pressure 30.26 in
Visibility 10.0 miles
Clouds Scattered Clouds 8500 ft
Windchill 42 °F
Dew Point 41 °F
Humidity 98%
Rainfall 0.00 in
Snow Depth Not available.
5:38 AM 8:14 PM
Waning Crescent, 10% visible
METAR KEIK 230535Z AUTO 00000KT 10SM SCT085 06/05 A3026 RMK AO2 T00600049

Get Severe Weather Alerts

Thanks for signing up!

Be on the lookout for a verification email in your inbox.

You'll start receiving the daily forecast at 6 AM.

×

10-Day Weather Forecast

Almanac

Astronomy

May. 22, 2017 Rise Set
Actual Time
Civil Twilight
Nautical Twilight
Astronomical Twilight
Moon
Length of Visible Light
Length of Day
Tomorrow will be .
, % of the Moon is Illuminated

Today's Extremes

State Highs State Lows

Community

WunderPhotos

Category 6

Welcome to Category 6. This is the collective home for Weather Underground's featured writeups by Dr. Jeff Masters (right), Bob Henson (left), Chris Burt, and other regular contributors.

Nearby

Air Quality

  Air Quality AQ Index Pollutant
Not available.

Snow Depth

Station Depth Elevation

Earthquake Activity

City Distance Mag. Time & Date
Minimum magnitude displayed is 2.5.

Coastal Water Temperatures

Place Temperature

Stations

Nearby Weather Stations

Station Location Temp. Windchill Dew Point Humidity Wind Precip. Elev Updated Type
                   

Watches & Warnings

There are currently no watches in effect.